createdAt,value
2019-05-02T00:01:55.299Z,24.03
2019-05-02T00:07:07.341Z,23.73
2019-05-02T00:12:12.458Z,25.70
2019-05-02T00:17:14.443Z,28.63
2019-05-02T00:22:17.158Z,25.47
2019-05-02T00:27:19.697Z,25.07
2019-05-02T00:32:22.446Z,26.70
2019-05-02T00:37:26.690Z,24.53
2019-05-02T00:42:28.603Z,27.40
2019-05-02T00:47:47.723Z,26.53
2019-05-02T00:52:46.060Z,24.47
2019-05-02T00:57:50.908Z,24.37
2019-05-02T01:02:56.199Z,25.23
2019-05-02T01:08:01.138Z,27.67
2019-05-02T01:13:01.326Z,24.73
2019-05-02T01:18:06.068Z,28.73
2019-05-02T01:23:06.464Z,27.47
2019-05-02T01:28:25.297Z,27.87
2019-05-02T01:33:36.799Z,26.43
2019-05-02T01:38:43.172Z,25.50
2019-05-02T01:43:44.736Z,26.67
2019-05-02T01:48:47.794Z,27.63
2019-05-02T01:53:49.508Z,28.30
2019-05-02T01:58:53.068Z,27.10
2019-05-02T02:03:54.920Z,30.90
2019-05-02T02:08:56.615Z,34.30
2019-05-02T02:13:58.186Z,32.90
2019-05-02T02:19:07.795Z,30.10
2019-05-02T02:24:25.210Z,30.63
2019-05-02T02:29:26.464Z,32.63
2019-05-02T02:34:29.768Z,30.53
2019-05-02T02:39:31.639Z,29.00
2019-05-02T02:44:52.991Z,27.93
2019-05-02T02:50:02.147Z,28.43
2019-05-02T02:54:58.963Z,29.00
2019-05-02T03:00:07.855Z,33.40
2019-05-02T03:05:04.395Z,30.20
2019-05-02T03:10:08.157Z,28.63
2019-05-02T03:15:13.214Z,32.07
2019-05-02T03:20:14.889Z,29.70
2019-05-02T03:25:18.071Z,28.73
2019-05-02T03:30:30.976Z,28.33
2019-05-02T03:35:39.650Z,32.87
2019-05-02T03:40:32.247Z,29.17
2019-05-02T03:45:32.037Z,30.33
2019-05-02T03:50:35.414Z,30.87
2019-05-02T03:55:37.629Z,32.83
2019-05-02T04:00:39.296Z,26.23
2019-05-02T04:05:42.337Z,26.67
2019-05-02T04:11:22.307Z,23.50
2019-05-02T04:16:27.557Z,29.50
2019-05-02T04:21:29.138Z,30.93
2019-05-02T04:26:30.899Z,29.37
2019-05-02T04:31:33.879Z,30.10
2019-05-02T04:36:35.640Z,30.07
2019-05-02T04:41:42.015Z,29.47
2019-05-02T04:46:40.704Z,29.13
2019-05-02T04:51:50.668Z,32.77
2019-05-02T04:56:52.343Z,30.07
2019-05-02T05:01:57.312Z,33.20
2019-05-02T05:06:58.217Z,32.13
2019-05-02T05:11:59.011Z,30.93
2019-05-02T05:16:59.711Z,37.67
2019-05-02T05:22:04.905Z,34.07
2019-05-02T05:27:04.782Z,33.17
2019-05-02T05:32:09.879Z,33.10
2019-05-02T05:37:13.464Z,28.43
2019-05-02T05:42:13.307Z,34.73
2019-05-02T05:47:17.682Z,31.80
2019-05-02T05:52:18.315Z,32.90
2019-05-02T05:57:21.199Z,31.27
2019-05-02T06:02:22.956Z,32.07
2019-05-02T06:07:24.528Z,32.50
2019-05-02T06:12:30.383Z,33.23
2019-05-02T06:17:30.460Z,35.27
2019-05-02T06:22:32.391Z,35.57
2019-05-02T06:27:34.059Z,35.73
2019-05-02T06:32:35.748Z,38.40
2019-05-02T06:37:40.419Z,36.57
2019-05-02T06:42:41.056Z,40.20
2019-05-02T06:47:43.645Z,38.43
2019-05-02T06:52:45.478Z,38.40
2019-05-02T06:57:47.296Z,37.83
2019-05-02T07:02:48.844Z,39.63
2019-05-02T07:07:50.387Z,38.53
2019-05-02T07:13:09.220Z,41.37
2019-05-02T07:17:58.313Z,38.43
2019-05-02T07:23:00.084Z,38.83
2019-05-02T07:28:04.646Z,38.40
2019-05-02T07:33:05.345Z,38.93
2019-05-02T07:38:07.039Z,43.63
2019-05-02T07:43:13.501Z,39.07
2019-05-02T07:48:17.198Z,40.40
2019-05-02T07:53:15.822Z,42.43
2019-05-02T07:58:17.391Z,46.90
2019-05-02T08:03:18.949Z,45.00
2019-05-02T08:08:20.669Z,43.83
2019-05-02T08:13:22.405Z,43.57
2019-05-02T08:18:25.243Z,41.60
2019-05-02T08:23:27.932Z,40.70
2019-05-02T08:28:35.967Z,41.07
2019-05-02T08:33:37.665Z,39.63
2019-05-02T08:38:39.358Z,35.77
2019-05-02T08:43:44.890Z,40.20
2019-05-02T08:48:44.448Z,38.03
2019-05-02T08:53:46.216Z,40.43
2019-05-02T08:58:49.846Z,39.90
2019-05-02T09:03:56.763Z,38.47
2019-05-02T09:08:55.257Z,39.57
2019-05-02T09:13:56.877Z,37.93
2019-05-02T09:18:58.526Z,37.87
2019-05-02T09:24:02.349Z,40.77
2019-05-02T09:29:05.407Z,35.80
2019-05-02T09:34:07.303Z,43.07
2019-05-02T09:39:09.010Z,39.27
2019-05-02T09:44:14.566Z,40.63
2019-05-02T09:49:16.577Z,34.60
2019-05-02T09:54:17.999Z,41.57
2019-05-02T09:59:27.781Z,37.93
2019-05-02T10:04:25.177Z,37.23
2019-05-02T10:09:27.312Z,33.37
2019-05-02T10:14:29.368Z,34.98
2019-05-02T10:19:32.687Z,32.67
2019-05-02T10:24:34.498Z,33.48
2019-05-02T10:29:36.392Z,34.53
2019-05-02T10:34:38.117Z,33.35
2019-05-02T10:39:39.882Z,30.17
2019-05-02T10:44:42.664Z,31.47
2019-05-02T10:49:55.252Z,30.80
2019-05-02T10:54:56.872Z,29.02
2019-05-02T10:59:59.345Z,31.07
2019-05-02T11:05:07.056Z,31.15
2019-05-02T11:10:08.929Z,29.20
2019-05-02T11:15:29.082Z,29.42
2019-05-02T11:20:32.942Z,27.17
2019-05-02T11:25:34.552Z,29.60
2019-05-02T11:30:36.866Z,25.23
2019-05-02T11:35:41.956Z,22.17
2019-05-02T11:40:42.626Z,26.48
2019-05-02T11:45:44.315Z,20.23
2019-05-02T11:50:45.927Z,17.80
2019-05-02T11:55:47.536Z,17.37
2019-05-02T12:00:49.789Z,18.95
2019-05-02T12:05:52.434Z,17.65
2019-05-02T12:10:54.256Z,17.70
2019-05-02T12:15:56.200Z,16.70
2019-05-02T12:20:57.792Z,18.37
2019-05-02T12:25:59.583Z,15.35
2019-05-02T12:31:02.718Z,16.73
2019-05-02T12:36:06.349Z,13.40
2019-05-02T12:41:19.508Z,15.03
2019-05-02T12:46:11.765Z,11.80
2019-05-02T12:51:13.293Z,14.20
2019-05-02T12:56:14.885Z,10.82
2019-05-02T13:01:16.563Z,10.18
2019-05-02T13:06:18.374Z,19.95
2019-05-02T13:11:36.848Z,21.93
2019-05-02T13:16:38.062Z,19.42
2019-05-02T13:22:17.376Z,22.00
2019-05-02T13:27:20.312Z,18.52
2019-05-02T13:32:36.567Z,18.17
2019-05-02T13:37:38.383Z,17.25
2019-05-02T13:42:41.803Z,16.17
2019-05-02T13:47:43.702Z,18.77
2019-05-02T13:52:53.166Z,21.48
2019-05-02T13:57:48.814Z,17.25
2019-05-02T14:02:51.999Z,19.57
2019-05-02T14:08:01.798Z,18.45
2019-05-02T14:13:03.704Z,20.68
2019-05-02T14:18:05.553Z,18.20
2019-05-02T14:23:07.237Z,20.60
2019-05-02T14:28:08.953Z,20.65
2019-05-02T14:33:15.916Z,16.90
2019-05-02T14:38:17.477Z,18.48
2019-05-02T14:43:38.193Z,19.25
2019-05-02T14:48:45.095Z,16.57
2019-05-02T14:53:44.793Z,15.58
2019-05-02T14:58:46.522Z,16.85
2019-05-02T15:03:48.106Z,16.87
2019-05-02T15:08:49.678Z,16.02
2019-05-02T15:13:52.491Z,15.60
2019-05-02T15:18:56.993Z,14.98
2019-05-02T15:23:58.059Z,16.62
2019-05-02T15:29:01.803Z,13.03
2019-05-02T15:34:26.029Z,13.62
2019-05-02T15:44:31.757Z,11.55
2019-05-02T15:49:44.963Z,10.05
2019-05-02T15:54:46.633Z,11.03
2019-05-02T15:59:48.208Z,6.67
2019-05-02T16:04:49.769Z,7.70
2019-05-02T16:09:51.588Z,12.35
2019-05-02T16:14:55.062Z,5.72
2019-05-02T16:20:07.664Z,5.35
2019-05-02T16:25:05.891Z,7.47
2019-05-02T16:30:10.759Z,3.05
2019-05-02T16:35:16.935Z,2.00
2019-05-02T16:40:22.078Z,2.37
2019-05-02T16:45:22.305Z,2.22
2019-05-02T16:50:27.595Z,3.15
2019-05-02T16:55:27.977Z,2.98
2019-05-02T17:00:31.851Z,2.40
2019-05-02T17:05:33.641Z,1.72
2019-05-02T17:10:57.145Z,1.95
2019-05-02T17:15:58.870Z,3.85
2019-05-02T17:21:01.674Z,3.17
2019-05-02T17:26:04.140Z,4.30
2019-05-02T17:31:10.734Z,7.25
2019-05-02T17:36:09.386Z,5.30
2019-05-02T17:41:11.864Z,7.50
2019-05-02T17:46:18.293Z,8.45
2019-05-02T17:51:28.347Z,9.40
2019-05-02T17:56:32.579Z,8.90
2019-05-02T18:01:37.143Z,8.80
2019-05-02T18:06:38.704Z,7.90
2019-05-02T18:11:42.295Z,9.03
2019-05-02T18:16:47.182Z,7.97
2019-05-02T18:21:47.579Z,7.20
2019-05-02T18:26:49.150Z,9.75
2019-05-02T18:31:52.155Z,8.93
2019-05-02T18:36:57.602Z,8.33
2019-05-02T18:41:57.387Z,10.37
2019-05-02T18:46:59.049Z,6.60
2019-05-02T18:52:01.792Z,8.23
2019-05-02T18:57:03.668Z,7.58
2019-05-02T19:02:05.342Z,10.93
2019-05-02T19:07:07.478Z,10.00
2019-05-02T19:12:19.409Z,12.07
2019-05-02T19:17:14.252Z,10.53
2019-05-02T19:22:17.012Z,11.23
2019-05-02T19:27:38.462Z,12.27
2019-05-02T19:32:41.721Z,10.40
2019-05-02T19:37:47.583Z,11.07
2019-05-02T19:42:47.028Z,11.50
2019-05-02T19:47:48.908Z,10.57
2019-05-02T19:53:00.830Z,13.13
2019-05-02T19:57:56.627Z,9.27
2019-05-02T20:02:57.824Z,11.57
2019-05-02T20:07:59.374Z,10.37
2019-05-02T20:13:03.185Z,10.97
2019-05-02T20:18:05.232Z,11.33
2019-05-02T20:23:15.509Z,13.17
2019-05-02T20:28:10.341Z,12.00
2019-05-02T20:33:12.834Z,14.50
2019-05-02T20:38:14.684Z,14.83
2019-05-02T20:43:16.240Z,15.43
2019-05-02T20:48:17.913Z,19.40
2019-05-02T20:53:28.740Z,18.67
2019-05-02T20:58:23.131Z,22.17
2019-05-02T21:03:24.819Z,21.27
2019-05-02T21:08:52.648Z,21.83
2019-05-02T21:13:54.188Z,23.10
2019-05-02T21:18:55.766Z,26.77
2019-05-02T21:23:57.337Z,22.63
2019-05-02T21:28:58.916Z,24.83
2019-05-02T21:34:02.452Z,24.27
2019-05-02T21:39:09.578Z,24.40
2019-05-02T21:44:13.076Z,20.50
2019-05-02T21:49:34.677Z,22.77
2019-05-02T21:55:04.809Z,21.53
2019-05-02T22:00:09.366Z,21.23
2019-05-02T22:05:12.646Z,20.33
2019-05-02T22:10:14.506Z,20.13
2019-05-02T22:15:16.051Z,18.43
2019-05-02T22:20:17.722Z,18.73
2019-05-02T22:25:19.491Z,16.83
2019-05-02T22:30:21.943Z,17.53
2019-05-02T22:35:23.600Z,17.87
2019-05-02T22:40:25.149Z,18.43
2019-05-02T22:45:26.696Z,15.83
2019-05-02T22:50:28.290Z,18.53
2019-05-02T22:55:31.897Z,17.90
2019-05-02T23:00:33.520Z,14.50
2019-05-02T23:05:35.204Z,13.77
2019-05-02T23:10:36.852Z,14.07
2019-05-02T23:15:38.531Z,12.33
2019-05-02T23:20:42.087Z,11.20
2019-05-02T23:26:08.853Z,12.40
2019-05-02T23:31:11.439Z,9.77
2019-05-02T23:36:14.082Z,11.20
2019-05-02T23:41:15.631Z,10.87
2019-05-02T23:46:17.193Z,13.67
2019-05-02T23:51:18.847Z,11.40
2019-05-02T23:56:22.112Z,10.77
